sensor_id;sensor_type;location;lat;lon;timestamp;pressure;altitude;pressure_sealevel;temperature;humidity
3082;BME280;1551;51.046;7.010;2023-01-27T00:02:31;101519.63;;;4.63;94.85
3082;BME280;1551;51.046;7.010;2023-01-27T00:05:20;101522.16;;;4.63;94.31
3082;BME280;1551;51.046;7.010;2023-01-27T00:08:10;101515.50;;;4.66;93.91
3082;BME280;1551;51.046;7.010;2023-01-27T00:10:59;101517.25;;;4.69;94.29
3082;BME280;1551;51.046;7.010;2023-01-27T00:14:07;101511.09;;;4.59;94.06
3082;BME280;1551;51.046;7.010;2023-01-27T00:16:56;101512.00;;;4.61;94.50
3082;BME280;1551;51.046;7.010;2023-01-27T00:19:45;101518.59;;;4.56;94.21
3082;BME280;1551;51.046;7.010;2023-01-27T00:22:34;101517.84;;;4.59;93.54
3082;BME280;1551;51.046;7.010;2023-01-27T00:25:42;101525.66;;;4.66;94.06
3082;BME280;1551;51.046;7.010;2023-01-27T00:28:35;101530.09;;;4.75;93.74
3082;BME280;1551;51.046;7.010;2023-01-27T00:31:25;101525.03;;;4.75;93.28
3082;BME280;1551;51.046;7.010;2023-01-27T00:34:32;101528.59;;;4.83;93.57
3082;BME280;1551;51.046;7.010;2023-01-27T00:37:21;101525.41;;;4.90;94.22
3082;BME280;1551;51.046;7.010;2023-01-27T00:40:12;101531.56;;;4.98;93.33
3082;BME280;1551;51.046;7.010;2023-01-27T00:43:01;101535.78;;;4.98;93.50
3082;BME280;1551;51.046;7.010;2023-01-27T00:45:51;101533.88;;;4.91;92.45
3082;BME280;1551;51.046;7.010;2023-01-27T00:48:40;101535.56;;;4.90;92.97
3082;BME280;1551;51.046;7.010;2023-01-27T00:51:29;101533.19;;;4.96;92.25
3082;BME280;1551;51.046;7.010;2023-01-27T00:54:18;101530.88;;;5.04;92.79
3082;BME280;1551;51.046;7.010;2023-01-27T00:57:08;101532.66;;;5.08;92.87
3082;BME280;1551;51.046;7.010;2023-01-27T00:59:57;101537.94;;;5.15;92.51
3082;BME280;1551;51.046;7.010;2023-01-27T01:02:46;101547.38;;;5.21;92.87
3082;BME280;1551;51.046;7.010;2023-01-27T01:05:35;101544.91;;;5.24;91.89
3082;BME280;1551;51.046;7.010;2023-01-27T01:08:24;101548.34;;;5.26;92.43
3082;BME280;1551;51.046;7.010;2023-01-27T01:11:15;101555.16;;;5.27;92.72
3082;BME280;1551;51.046;7.010;2023-01-27T01:14:04;101560.91;;;5.21;92.75
3082;BME280;1551;51.046;7.010;2023-01-27T01:16:53;101550.94;;;5.27;93.37
3082;BME280;1551;51.046;7.010;2023-01-27T01:19:44;101558.69;;;5.33;92.76
3082;BME280;1551;51.046;7.010;2023-01-27T01:22:33;101562.03;;;5.32;92.40
3082;BME280;1551;51.046;7.010;2023-01-27T01:25:22;101553.31;;;5.21;92.05
3082;BME280;1551;51.046;7.010;2023-01-27T01:28:12;101570.38;;;5.27;92.13
3082;BME280;1551;51.046;7.010;2023-01-27T01:31:06;101571.91;;;5.20;91.56
3082;BME280;1551;51.046;7.010;2023-01-27T01:33:55;101553.94;;;5.13;91.50
3082;BME280;1551;51.046;7.010;2023-01-27T01:36:44;101562.44;;;5.15;90.65
3082;BME280;1551;51.046;7.010;2023-01-27T01:39:33;101532.50;;;5.02;91.44
3082;BME280;1551;51.046;7.010;2023-01-27T01:42:22;101566.84;;;5.22;91.37
3082;BME280;1551;51.046;7.010;2023-01-27T01:45:42;101570.25;;;5.22;90.96
3082;BME280;1551;51.046;7.010;2023-01-27T01:51:35;101561.50;;;5.11;91.06
3082;BME280;1551;51.046;7.010;2023-01-27T01:54:28;101561.47;;;5.10;89.85
3082;BME280;1551;51.046;7.010;2023-01-27T01:57:22;101553.28;;;5.20;90.89
3082;BME280;1551;51.046;7.010;2023-01-27T02:00:14;101557.50;;;5.21;90.80
3082;BME280;1551;51.046;7.010;2023-01-27T02:03:03;101558.47;;;5.24;90.24
3082;BME280;1551;51.046;7.010;2023-01-27T02:05:53;101561.19;;;5.32;90.31
3082;BME280;1551;51.046;7.010;2023-01-27T02:08:44;101555.94;;;5.26;89.91
3082;BME280;1551;51.046;7.010;2023-01-27T02:11:34;101562.53;;;5.18;89.10
3082;BME280;1551;51.046;7.010;2023-01-27T02:14:23;101566.75;;;5.19;89.62
3082;BME280;1551;51.046;7.010;2023-01-27T02:17:13;101575.91;;;5.12;88.57
3082;BME280;1551;51.046;7.010;2023-01-27T02:23:21;101577.56;;;5.12;89.35
3082;BME280;1551;51.046;7.010;2023-01-27T02:26:17;101574.81;;;5.03;88.99
3082;BME280;1551;51.046;7.010;2023-01-27T02:29:13;101574.97;;;5.09;89.22
3082;BME280;1551;51.046;7.010;2023-01-27T02:32:04;101567.50;;;5.13;89.56
3082;BME280;1551;51.046;7.010;2023-01-27T02:34:54;101571.69;;;5.13;89.73
3082;BME280;1551;51.046;7.010;2023-01-27T02:37:45;101567.59;;;5.18;90.11
3082;BME280;1551;51.046;7.010;2023-01-27T02:40:35;101563.38;;;5.18;90.17
3082;BME280;1551;51.046;7.010;2023-01-27T02:43:25;101573.81;;;5.29;90.42
3082;BME280;1551;51.046;7.010;2023-01-27T02:46:15;101572.16;;;5.31;88.89
3082;BME280;1551;51.046;7.010;2023-01-27T02:49:04;101575.47;;;5.28;89.54
3082;BME280;1551;51.046;7.010;2023-01-27T02:51:53;101583.00;;;5.25;89.18
3082;BME280;1551;51.046;7.010;2023-01-27T02:54:44;101584.72;;;5.26;88.69
3082;BME280;1551;51.046;7.010;2023-01-27T02:57:33;101580.63;;;5.31;88.90
3082;BME280;1551;51.046;7.010;2023-01-27T03:00:38;101584.88;;;5.32;88.17
3082;BME280;1551;51.046;7.010;2023-01-27T03:03:27;101585.38;;;5.18;87.15
3082;BME280;1551;51.046;7.010;2023-01-27T03:06:17;101583.59;;;5.15;87.38
3082;BME280;1551;51.046;7.010;2023-01-27T03:09:07;101591.22;;;5.15;87.92
3082;BME280;1551;51.046;7.010;2023-01-27T03:11:56;101578.59;;;5.18;87.34
3082;BME280;1551;51.046;7.010;2023-01-27T03:15:04;101583.66;;;5.18;87.62
3082;BME280;1551;51.046;7.010;2023-01-27T03:18:12;101580.94;;;5.11;86.29
3082;BME280;1551;51.046;7.010;2023-01-27T03:21:05;101585.06;;;5.07;86.60
3082;BME280;1551;51.046;7.010;2023-01-27T03:23:55;101583.50;;;5.11;86.34
3082;BME280;1551;51.046;7.010;2023-01-27T03:26:45;101589.47;;;5.13;86.21
3082;BME280;1551;51.046;7.010;2023-01-27T03:29:36;101587.00;;;5.16;86.00
3082;BME280;1551;51.046;7.010;2023-01-27T03:32:44;101592.97;;;5.18;85.82
3082;BME280;1551;51.046;7.010;2023-01-27T03:35:57;101593.00;;;5.19;86.34
3082;BME280;1551;51.046;7.010;2023-01-27T03:39:11;101602.16;;;5.14;86.35
3082;BME280;1551;51.046;7.010;2023-01-27T03:42:19;101602.22;;;5.16;86.12
3082;BME280;1551;51.046;7.010;2023-01-27T03:45:27;101600.59;;;5.18;86.19
3082;BME280;1551;51.046;7.010;2023-01-27T03:48:35;101606.56;;;5.20;85.63
3082;BME280;1551;51.046;7.010;2023-01-27T03:51:25;101604.88;;;5.20;86.05
3082;BME280;1551;51.046;7.010;2023-01-27T03:54:15;101609.09;;;5.20;85.28
3082;BME280;1551;51.046;7.010;2023-01-27T03:57:03;101607.56;;;5.26;86.30
3082;BME280;1551;51.046;7.010;2023-01-27T03:59:54;101604.34;;;5.32;86.09
3082;BME280;1551;51.046;7.010;2023-01-27T04:02:43;101603.19;;;5.21;85.70
3082;BME280;1551;51.046;7.010;2023-01-27T04:05:51;101610.78;;;5.21;86.01
3082;BME280;1551;51.046;7.010;2023-01-27T04:08:59;101608.38;;;5.25;86.17
3082;BME280;1551;51.046;7.010;2023-01-27T04:11:49;101600.63;;;5.19;86.19
3082;BME280;1551;51.046;7.010;2023-01-27T04:14:44;101602.38;;;5.22;85.89
3082;BME280;1551;51.046;7.010;2023-01-27T04:17:33;101599.88;;;5.23;86.15
3082;BME280;1551;51.046;7.010;2023-01-27T04:20:26;101608.19;;;5.18;85.41
3082;BME280;1551;51.046;7.010;2023-01-27T04:23:15;101601.41;;;5.17;86.43
3082;BME280;1551;51.046;7.010;2023-01-27T04:26:04;101597.19;;;5.17;86.52
3082;BME280;1551;51.046;7.010;2023-01-27T04:28:54;101601.31;;;5.14;86.03
3082;BME280;1551;51.046;7.010;2023-01-27T04:31:43;101603.53;;;5.02;86.45
3082;BME280;1551;51.046;7.010;2023-01-27T04:34:32;101603.66;;;5.06;86.17
3082;BME280;1551;51.046;7.010;2023-01-27T04:37:21;101607.88;;;5.06;86.76
3082;BME280;1551;51.046;7.010;2023-01-27T04:40:11;101606.91;;;5.02;86.00
3082;BME280;1551;51.046;7.010;2023-01-27T04:43:00;101608.44;;;4.96;87.17
3082;BME280;1551;51.046;7.010;2023-01-27T04:45:48;101599.94;;;4.94;86.59
3082;BME280;1551;51.046;7.010;2023-01-27T04:48:37;101594.75;;;4.91;86.91
3082;BME280;1551;51.046;7.010;2023-01-27T04:51:27;101610.03;;;4.92;87.33
3082;BME280;1551;51.046;7.010;2023-01-27T04:54:16;101609.00;;;4.85;87.28
3082;BME280;1551;51.046;7.010;2023-01-27T04:57:05;101606.31;;;4.81;87.88
3082;BME280;1551;51.046;7.010;2023-01-27T04:59:54;101609.81;;;4.84;87.84
3082;BME280;1551;51.046;7.010;2023-01-27T05:02:43;101613.09;;;4.80;87.30
3082;BME280;1551;51.046;7.010;2023-01-27T05:05:32;101613.91;;;4.79;88.18
3082;BME280;1551;51.046;7.010;2023-01-27T05:08:21;101620.78;;;4.83;87.67
3082;BME280;1551;51.046;7.010;2023-01-27T05:11:10;101620.91;;;4.88;86.98
3082;BME280;1551;51.046;7.010;2023-01-27T05:13:59;101630.41;;;4.95;87.10
3082;BME280;1551;51.046;7.010;2023-01-27T05:16:48;101626.84;;;4.88;86.89
3082;BME280;1551;51.046;7.010;2023-01-27T05:19:37;101625.94;;;4.86;87.63
3082;BME280;1551;51.046;7.010;2023-01-27T05:22:26;101626.97;;;4.93;86.89
3082;BME280;1551;51.046;7.010;2023-01-27T05:25:15;101630.53;;;5.00;87.59
3082;BME280;1551;51.046;7.010;2023-01-27T05:28:04;101629.72;;;5.01;86.60
3082;BME280;1551;51.046;7.010;2023-01-27T05:31:09;101634.03;;;5.05;87.36
3082;BME280;1551;51.046;7.010;2023-01-27T05:34:00;101637.41;;;5.04;87.67
3082;BME280;1551;51.046;7.010;2023-01-27T05:36:49;101636.66;;;5.06;87.18
3082;BME280;1551;51.046;7.010;2023-01-27T05:39:39;101645.84;;;5.03;86.71
3082;BME280;1551;51.046;7.010;2023-01-27T05:42:28;101640.00;;;5.05;86.64
3082;BME280;1551;51.046;7.010;2023-01-27T05:45:17;101644.38;;;5.11;87.55
3082;BME280;1551;51.046;7.010;2023-01-27T05:48:06;101642.63;;;5.08;86.63
3082;BME280;1551;51.046;7.010;2023-01-27T05:50:58;101642.53;;;5.05;87.52
3082;BME280;1551;51.046;7.010;2023-01-27T05:53:47;101640.94;;;5.09;87.36
3082;BME280;1551;51.046;7.010;2023-01-27T05:56:37;101646.94;;;5.12;86.70
3082;BME280;1551;51.046;7.010;2023-01-27T05:59:26;101651.34;;;5.18;86.92
3082;BME280;1551;51.046;7.010;2023-01-27T06:02:15;101655.66;;;5.22;87.71
3082;BME280;1551;51.046;7.010;2023-01-27T06:05:05;101656.34;;;5.16;87.07
3082;BME280;1551;51.046;7.010;2023-01-27T06:07:54;101657.13;;;5.14;86.86
3082;BME280;1551;51.046;7.010;2023-01-27T06:10:43;101652.78;;;5.10;87.85
3082;BME280;1551;51.046;7.010;2023-01-27T06:13:32;101656.31;;;5.15;87.28
3082;BME280;1551;51.046;7.010;2023-01-27T06:16:26;101656.41;;;5.18;87.98
3082;BME280;1551;51.046;7.010;2023-01-27T06:19:15;101659.13;;;5.25;87.76
3082;BME280;1551;51.046;7.010;2023-01-27T06:22:04;101655.75;;;5.25;87.19
3082;BME280;1551;51.046;7.010;2023-01-27T06:24:53;101660.78;;;5.23;87.34
3082;BME280;1551;51.046;7.010;2023-01-27T06:27:42;101653.13;;;5.22;87.49
3082;BME280;1551;51.046;7.010;2023-01-27T06:30:36;101656.56;;;5.24;87.56
3082;BME280;1551;51.046;7.010;2023-01-27T06:33:26;101662.53;;;5.26;87.57
3082;BME280;1551;51.046;7.010;2023-01-27T06:36:17;101659.97;;;5.24;87.32
3082;BME280;1551;51.046;7.010;2023-01-27T06:39:06;101665.78;;;5.20;87.08
3082;BME280;1551;51.046;7.010;2023-01-27T06:41:55;101663.41;;;5.26;88.12
3082;BME280;1551;51.046;7.010;2023-01-27T06:44:44;101671.91;;;5.28;87.13
3082;BME280;1551;51.046;7.010;2023-01-27T06:47:33;101680.53;;;5.35;87.67
3082;BME280;1551;51.046;7.010;2023-01-27T06:50:23;101682.06;;;5.28;87.59
3082;BME280;1551;51.046;7.010;2023-01-27T06:53:12;101681.19;;;5.28;87.59
3082;BME280;1551;51.046;7.010;2023-01-27T06:56:01;101687.25;;;5.33;87.12
3082;BME280;1551;51.046;7.010;2023-01-27T06:58:50;101689.13;;;5.38;86.64
3082;BME280;1551;51.046;7.010;2023-01-27T07:01:39;101690.88;;;5.41;87.40
3082;BME280;1551;51.046;7.010;2023-01-27T07:04:28;101691.00;;;5.45;86.90
3082;BME280;1551;51.046;7.010;2023-01-27T07:07:19;101687.44;;;5.39;87.07
3082;BME280;1551;51.046;7.010;2023-01-27T07:10:09;101680.50;;;5.32;86.08
3082;BME280;1551;51.046;7.010;2023-01-27T07:13:09;101694.06;;;5.34;86.99
3082;BME280;1551;51.046;7.010;2023-01-27T07:15:58;101696.66;;;5.37;86.04
3082;BME280;1551;51.046;7.010;2023-01-27T07:18:48;101698.31;;;5.35;86.06
3082;BME280;1551;51.046;7.010;2023-01-27T07:21:37;101694.06;;;5.34;86.50
3082;BME280;1551;51.046;7.010;2023-01-27T07:24:26;101689.94;;;5.37;86.61
3082;BME280;1551;51.046;7.010;2023-01-27T07:27:15;101700.97;;;5.39;85.92
3082;BME280;1551;51.046;7.010;2023-01-27T07:30:04;101705.38;;;5.45;86.61
3082;BME280;1551;51.046;7.010;2023-01-27T07:32:54;101704.56;;;5.46;85.72
3082;BME280;1551;51.046;7.010;2023-01-27T07:35:43;101705.56;;;5.52;85.55
3082;BME280;1551;51.046;7.010;2023-01-27T07:38:32;101706.50;;;5.56;85.91
3082;BME280;1551;51.046;7.010;2023-01-27T07:41:21;101705.59;;;5.54;86.02
3082;BME280;1551;51.046;7.010;2023-01-27T07:44:10;101708.97;;;5.53;86.00
3082;BME280;1551;51.046;7.010;2023-01-27T07:47:01;101709.94;;;5.58;85.43
3082;BME280;1551;51.046;7.010;2023-01-27T07:49:50;101709.09;;;5.57;85.29
3082;BME280;1551;51.046;7.010;2023-01-27T07:52:39;101709.03;;;5.56;85.84
3082;BME280;1551;51.046;7.010;2023-01-27T07:55:29;101716.59;;;5.53;85.61
3082;BME280;1551;51.046;7.010;2023-01-27T07:58:19;101719.16;;;5.54;85.49
3082;BME280;1551;51.046;7.010;2023-01-27T08:01:09;101715.75;;;5.52;85.87
3082;BME280;1551;51.046;7.010;2023-01-27T08:03:58;101708.88;;;5.48;85.19
3082;BME280;1551;51.046;7.010;2023-01-27T08:06:47;101719.19;;;5.56;85.63
3082;BME280;1551;51.046;7.010;2023-01-27T08:09:36;101720.94;;;5.57;85.54
3082;BME280;1551;51.046;7.010;2023-01-27T08:12:25;101727.78;;;5.60;85.38
3082;BME280;1551;51.046;7.010;2023-01-27T08:15:14;101721.97;;;5.65;85.57
3082;BME280;1551;51.046;7.010;2023-01-27T08:18:03;101720.66;;;5.79;85.24
3082;BME280;1551;51.046;7.010;2023-01-27T08:20:53;101718.22;;;5.82;84.78
3082;BME280;1551;51.046;7.010;2023-01-27T08:23:42;101723.72;;;5.97;85.37
3082;BME280;1551;51.046;7.010;2023-01-27T08:26:31;101720.84;;;6.18;85.01
3082;BME280;1551;51.046;7.010;2023-01-27T08:29:19;101722.91;;;6.33;84.63
3082;BME280;1551;51.046;7.010;2023-01-27T08:32:09;101715.16;;;6.28;83.21
3082;BME280;1551;51.046;7.010;2023-01-27T08:34:58;101721.13;;;6.30;83.75
3082;BME280;1551;51.046;7.010;2023-01-27T08:37:47;101723.88;;;6.38;83.19
3082;BME280;1551;51.046;7.010;2023-01-27T08:40:40;101725.47;;;6.34;82.72
3082;BME280;1551;51.046;7.010;2023-01-27T08:43:30;101730.09;;;6.50;83.16
3082;BME280;1551;51.046;7.010;2023-01-27T08:46:20;101729.16;;;6.47;83.13
3082;BME280;1551;51.046;7.010;2023-01-27T08:49:10;101729.38;;;6.56;82.65
3082;BME280;1551;51.046;7.010;2023-01-27T08:52:01;101728.91;;;6.73;82.09
3082;BME280;1551;51.046;7.010;2023-01-27T08:54:50;101730.84;;;6.83;81.61
3082;BME280;1551;51.046;7.010;2023-01-27T08:57:40;101738.44;;;6.82;81.66
3082;BME280;1551;51.046;7.010;2023-01-27T09:00:28;101738.13;;;7.06;81.53
3082;BME280;1551;51.046;7.010;2023-01-27T09:03:18;101729.28;;;7.30;80.61
3082;BME280;1551;51.046;7.010;2023-01-27T09:06:09;101736.59;;;7.15;79.92
3082;BME280;1551;51.046;7.010;2023-01-27T09:08:58;101740.44;;;7.37;79.96
3082;BME280;1551;51.046;7.010;2023-01-27T09:11:56;101734.69;;;7.45;79.42
3082;BME280;1551;51.046;7.010;2023-01-27T09:14:45;101739.09;;;7.55;79.77
3082;BME280;1551;51.046;7.010;2023-01-27T09:17:34;101749.97;;;7.47;78.67
3082;BME280;1551;51.046;7.010;2023-01-27T09:20:23;101750.44;;;7.28;78.46
3082;BME280;1551;51.046;7.010;2023-01-27T09:23:12;101737.66;;;7.68;78.49
3082;BME280;1551;51.046;7.010;2023-01-27T09:26:01;101748.38;;;7.97;77.01
3082;BME280;1551;51.046;7.010;2023-01-27T09:28:49;101750.81;;;8.39;75.20
3082;BME280;1551;51.046;7.010;2023-01-27T09:31:38;101753.38;;;8.95;73.65
3082;BME280;1551;51.046;7.010;2023-01-27T09:34:28;101745.75;;;9.72;71.89
3082;BME280;1551;51.046;7.010;2023-01-27T09:37:17;101757.81;;;9.85;70.00
3082;BME280;1551;51.046;7.010;2023-01-27T09:40:19;101754.34;;;9.77;70.42
3082;BME280;1551;51.046;7.010;2023-01-27T09:50:15;101775.84;;;8.64;71.13
3082;BME280;1551;51.046;7.010;2023-01-27T09:56:15;101789.97;;;7.94;74.19
3082;BME280;1551;51.046;7.010;2023-01-27T10:02:12;101796.97;;;8.06;75.45
3082;BME280;1551;51.046;7.010;2023-01-27T10:05:13;101797.22;;;8.21;74.89
3082;BME280;1551;51.046;7.010;2023-01-27T10:20:19;101788.94;;;8.31;76.43
3082;BME280;1551;51.046;7.010;2023-01-27T10:23:27;101793.44;;;8.46;75.43
3082;BME280;1551;51.046;7.010;2023-01-27T10:26:40;101797.69;;;8.45;75.87
3082;BME280;1551;51.046;7.010;2023-01-27T10:29:37;101794.03;;;8.29;75.41
3082;BME280;1551;51.046;7.010;2023-01-27T10:36:07;101801.47;;;7.74;76.20
3082;BME280;1551;51.046;7.010;2023-01-27T10:39:08;101794.78;;;7.81;76.39
3082;BME280;1551;51.046;7.010;2023-01-27T10:42:12;101797.63;;;7.94;76.96
3082;BME280;1551;51.046;7.010;2023-01-27T10:45:34;101801.84;;;7.94;76.66
3082;BME280;1551;51.046;7.010;2023-01-27T10:48:32;101805.28;;;7.96;76.81
3082;BME280;1551;51.046;7.010;2023-01-27T10:51:44;101800.19;;;7.96;76.55
3082;BME280;1551;51.046;7.010;2023-01-27T10:54:39;101801.03;;;7.96;76.65
3082;BME280;1551;51.046;7.010;2023-01-27T10:57:39;101802.09;;;8.07;77.02
3082;BME280;1551;51.046;7.010;2023-01-27T11:00:38;101802.38;;;8.24;75.73
3082;BME280;1551;51.046;7.010;2023-01-27T11:03:34;101804.94;;;8.24;75.71
3082;BME280;1551;51.046;7.010;2023-01-27T11:06:36;101798.94;;;8.22;76.01
3082;BME280;1551;51.046;7.010;2023-01-27T11:09:29;101804.91;;;8.22;76.05
3082;BME280;1551;51.046;7.010;2023-01-27T11:12:27;101793.50;;;8.02;76.16
3082;BME280;1551;51.046;7.010;2023-01-27T11:15:24;101796.66;;;7.89;75.49
3082;BME280;1551;51.046;7.010;2023-01-27T11:18:20;101800.09;;;7.91;75.91
3082;BME280;1551;51.046;7.010;2023-01-27T11:21:17;101794.13;;;7.89;76.09
3082;BME280;1551;51.046;7.010;2023-01-27T11:24:19;101798.28;;;7.86;75.71
3082;BME280;1551;51.046;7.010;2023-01-27T11:27:21;101801.19;;;8.04;75.87
3082;BME280;1551;51.046;7.010;2023-01-27T11:30:25;101782.69;;;8.15;75.28
3082;BME280;1551;51.046;7.010;2023-01-27T11:33:17;101802.03;;;8.51;74.70
3082;BME280;1551;51.046;7.010;2023-01-27T11:36:08;101789.56;;;8.69;73.29
3082;BME280;1551;51.046;7.010;2023-01-27T11:38:57;101779.13;;;9.84;73.18
3082;BME280;1551;51.046;7.010;2023-01-27T11:41:53;101774.75;;;9.74;70.64
3082;BME280;1551;51.046;7.010;2023-01-27T11:44:54;101769.81;;;9.89;69.15
3082;BME280;1551;51.046;7.010;2023-01-27T11:47:46;101773.19;;;9.90;69.16
3082;BME280;1551;51.046;7.010;2023-01-27T11:50:35;101773.19;;;9.88;69.07
3082;BME280;1551;51.046;7.010;2023-01-27T11:53:28;101765.44;;;9.81;69.60
3082;BME280;1551;51.046;7.010;2023-01-27T11:56:24;101768.13;;;9.91;68.73
3082;BME280;1551;51.046;7.010;2023-01-27T11:59:35;101766.31;;;9.80;68.31
3082;BME280;1551;51.046;7.010;2023-01-27T12:02:37;101770.59;;;9.85;68.51
3082;BME280;1551;51.046;7.010;2023-01-27T12:05:32;101767.13;;;9.77;68.06
3082;BME280;1551;51.046;7.010;2023-01-27T12:08:45;101761.53;;;9.35;68.75
3082;BME280;1551;51.046;7.010;2023-01-27T12:11:34;101761.97;;;9.04;69.21
3082;BME280;1551;51.046;7.010;2023-01-27T12:14:23;101769.44;;;8.88;69.15
3082;BME280;1551;51.046;7.010;2023-01-27T12:17:22;101763.91;;;8.61;69.75
3082;BME280;1551;51.046;7.010;2023-01-27T12:23:23;101760.88;;;8.29;71.23
3082;BME280;1551;51.046;7.010;2023-01-27T12:26:14;101758.06;;;8.17;72.16
3082;BME280;1551;51.046;7.010;2023-01-27T12:29:06;101749.34;;;8.05;72.40
3082;BME280;1551;51.046;7.010;2023-01-27T12:31:57;101752.69;;;8.01;72.51
3082;BME280;1551;51.046;7.010;2023-01-27T12:34:50;101752.66;;;7.99;73.32
3082;BME280;1551;51.046;7.010;2023-01-27T12:37:41;101743.53;;;8.12;73.51
3082;BME280;1551;51.046;7.010;2023-01-27T12:40:31;101741.09;;;8.18;73.85
3082;BME280;1551;51.046;7.010;2023-01-27T12:43:20;101737.84;;;8.26;73.30
3082;BME280;1551;51.046;7.010;2023-01-27T12:46:22;101740.97;;;8.12;72.83
3082;BME280;1551;51.046;7.010;2023-01-27T12:49:12;101733.22;;;8.06;73.72
3082;BME280;1551;51.046;7.010;2023-01-27T12:52:04;101733.38;;;8.15;73.87
3082;BME280;1551;51.046;7.010;2023-01-27T12:54:56;101732.50;;;8.13;72.88
3082;BME280;1551;51.046;7.010;2023-01-27T12:57:45;101742.59;;;8.07;73.48
3082;BME280;1551;51.046;7.010;2023-01-27T13:00:34;101736.53;;;8.00;73.11
3082;BME280;1551;51.046;7.010;2023-01-27T13:03:23;101740.72;;;7.97;73.86
3082;BME280;1551;51.046;7.010;2023-01-27T13:06:14;101741.53;;;7.96;73.87
3082;BME280;1551;51.046;7.010;2023-01-27T13:09:04;101745.75;;;7.94;73.52
3082;BME280;1551;51.046;7.010;2023-01-27T13:11:56;101742.13;;;7.81;73.97
3082;BME280;1551;51.046;7.010;2023-01-27T13:14:50;101748.06;;;7.80;74.17
3082;BME280;1551;51.046;7.010;2023-01-27T13:17:46;101747.13;;;7.74;74.02
3082;BME280;1551;51.046;7.010;2023-01-27T13:20:41;101756.53;;;7.79;74.08
3082;BME280;1551;51.046;7.010;2023-01-27T13:23:33;101753.13;;;7.79;74.71
3082;BME280;1551;51.046;7.010;2023-01-27T13:26:27;101752.25;;;7.77;74.36
3082;BME280;1551;51.046;7.010;2023-01-27T13:29:25;101749.69;;;7.77;74.38
3082;BME280;1551;51.046;7.010;2023-01-27T13:32:28;101754.69;;;7.71;74.67
3082;BME280;1551;51.046;7.010;2023-01-27T13:35:54;101758.06;;;7.70;75.12
3082;BME280;1551;51.046;7.010;2023-01-27T13:38:46;101759.81;;;7.72;74.90
3082;BME280;1551;51.046;7.010;2023-01-27T13:41:48;101756.53;;;7.78;74.95
3082;BME280;1551;51.046;7.010;2023-01-27T13:47:52;101765.94;;;7.82;74.84
3082;BME280;1551;51.046;7.010;2023-01-27T13:50:51;101769.19;;;7.73;75.06
3082;BME280;1551;51.046;7.010;2023-01-27T13:53:42;101774.06;;;7.62;75.38
3082;BME280;1551;51.046;7.010;2023-01-27T13:59:38;101774.28;;;7.73;75.39
3082;BME280;1551;51.046;7.010;2023-01-27T14:05:42;101766.06;;;7.89;75.09
3082;BME280;1551;51.046;7.010;2023-01-27T14:11:44;101775.31;;;7.83;74.52
3082;BME280;1551;51.046;7.010;2023-01-27T14:15:19;101779.31;;;7.72;74.85
3082;BME280;1551;51.046;7.010;2023-01-27T14:21:27;101782.66;;;7.68;74.66
3082;BME280;1551;51.046;7.010;2023-01-27T14:24:45;101785.25;;;7.71;73.96
3082;BME280;1551;51.046;7.010;2023-01-27T14:27:43;101791.94;;;7.64;74.34
3082;BME280;1551;51.046;7.010;2023-01-27T14:30:42;101793.47;;;7.56;74.20
3082;BME280;1551;51.046;7.010;2023-01-27T14:33:41;101796.78;;;7.52;73.89
3082;BME280;1551;51.046;7.010;2023-01-27T14:36:42;101797.84;;;7.61;73.89
3082;BME280;1551;51.046;7.010;2023-01-27T14:43:05;101794.50;;;7.64;72.72
3082;BME280;1551;51.046;7.010;2023-01-27T14:49:05;101800.75;;;7.38;72.87
3082;BME280;1551;51.046;7.010;2023-01-27T14:52:01;101799.78;;;7.33;72.92
3082;BME280;1551;51.046;7.010;2023-01-27T14:58:13;101806.16;;;7.14;72.86
3082;BME280;1551;51.046;7.010;2023-01-27T15:01:37;101804.44;;;7.13;73.22
3082;BME280;1551;51.046;7.010;2023-01-27T15:08:08;101807.94;;;7.18;72.93
3082;BME280;1551;51.046;7.010;2023-01-27T15:17:36;101820.69;;;7.18;72.85
3082;BME280;1551;51.046;7.010;2023-01-27T15:20:40;101820.59;;;7.15;72.99
3082;BME280;1551;51.046;7.010;2023-01-27T15:26:31;101827.31;;;7.10;72.63
3082;BME280;1551;51.046;7.010;2023-01-27T15:29:27;101823.09;;;7.12;73.21
3082;BME280;1551;51.046;7.010;2023-01-27T15:38:17;101846.00;;;7.12;72.91
3082;BME280;1551;51.046;7.010;2023-01-27T15:41:10;101835.84;;;7.14;72.58
3082;BME280;1551;51.046;7.010;2023-01-27T15:44:14;101851.22;;;7.18;72.69
3082;BME280;1551;51.046;7.010;2023-01-27T15:47:15;101857.97;;;7.16;72.93
3082;BME280;1551;51.046;7.010;2023-01-27T15:50:20;101862.09;;;7.11;72.78
3082;BME280;1551;51.046;7.010;2023-01-27T15:53:14;101862.84;;;7.06;73.23
3082;BME280;1551;51.046;7.010;2023-01-27T15:56:05;101856.00;;;7.03;73.71
3082;BME280;1551;51.046;7.010;2023-01-27T15:58:57;101861.88;;;7.02;73.47
3082;BME280;1551;51.046;7.010;2023-01-27T16:02:22;101861.88;;;7.01;73.85
3082;BME280;1551;51.046;7.010;2023-01-27T16:05:44;101869.41;;;6.98;74.04
3082;BME280;1551;51.046;7.010;2023-01-27T16:08:58;101871.97;;;6.98;73.91
3082;BME280;1551;51.046;7.010;2023-01-27T16:12:04;101869.41;;;6.96;74.10
3082;BME280;1551;51.046;7.010;2023-01-27T16:20:59;101886.16;;;6.88;74.53
3082;BME280;1551;51.046;7.010;2023-01-27T16:23:57;101887.81;;;6.86;74.56
3082;BME280;1551;51.046;7.010;2023-01-27T16:26:56;101889.50;;;6.85;74.88
3082;BME280;1551;51.046;7.010;2023-01-27T16:33:37;101903.38;;;6.98;75.12
3082;BME280;1551;51.046;7.010;2023-01-27T16:36:34;101903.44;;;7.01;75.68
3082;BME280;1551;51.046;7.010;2023-01-27T16:39:31;101895.47;;;6.87;75.46
3082;BME280;1551;51.046;7.010;2023-01-27T16:42:31;101911.50;;;6.83;74.74
3082;BME280;1551;51.046;7.010;2023-01-27T16:45:24;101911.38;;;6.79;75.33
3082;BME280;1551;51.046;7.010;2023-01-27T16:48:45;101918.31;;;6.84;75.68
3082;BME280;1551;51.046;7.010;2023-01-27T16:51:35;101914.91;;;6.84;75.78
3082;BME280;1551;51.046;7.010;2023-01-27T16:54:28;101912.13;;;6.75;75.64
3082;BME280;1551;51.046;7.010;2023-01-27T16:57:35;101908.56;;;6.68;75.81
3082;BME280;1551;51.046;7.010;2023-01-27T17:00:29;101917.91;;;6.69;76.61
3082;BME280;1551;51.046;7.010;2023-01-27T17:03:35;101931.22;;;6.59;76.30
3082;BME280;1551;51.046;7.010;2023-01-27T17:06:26;101919.38;;;6.60;76.44
3082;BME280;1551;51.046;7.010;2023-01-27T17:09:25;101933.81;;;6.61;76.54
3082;BME280;1551;51.046;7.010;2023-01-27T17:12:28;101934.53;;;6.57;76.82
3082;BME280;1551;51.046;7.010;2023-01-27T17:15:33;101928.31;;;6.46;76.88
3082;BME280;1551;51.046;7.010;2023-01-27T17:18:24;101928.41;;;6.49;76.95
3082;BME280;1551;51.046;7.010;2023-01-27T17:21:26;101939.38;;;6.48;77.73